sensor_id;sensor_type;location;lat;lon;timestamp;P1;durP1;ratioP1;P2;durP2;ratioP2
38859;SDS011;24609;48.316;16.174;2022-11-15T00:00:09;41.20;;;17.50;;
38859;SDS011;24609;48.316;16.174;2022-11-15T00:02:35;40.58;;;17.67;;
38859;SDS011;24609;48.316;16.174;2022-11-15T00:05:00;38.13;;;15.38;;
38859;SDS011;24609;48.316;16.174;2022-11-15T00:07:26;34.10;;;13.73;;
38859;SDS011;24609;48.316;16.174;2022-11-15T00:09:52;44.42;;;18.45;;
38859;SDS011;24609;48.316;16.174;2022-11-15T00:12:17;40.95;;;15.82;;
38859;SDS011;24609;48.316;16.174;2022-11-15T00:14:43;46.95;;;18.48;;
38859;SDS011;24609;48.316;16.174;2022-11-15T00:17:09;33.38;;;16.00;;
38859;SDS011;24609;48.316;16.174;2022-11-15T00:19:34;38.53;;;15.60;;
38859;SDS011;24609;48.316;16.174;2022-11-15T00:22:00;45.10;;;17.35;;
38859;SDS011;24609;48.316;16.174;2022-11-15T00:24:26;37.28;;;16.92;;
38859;SDS011;24609;48.316;16.174;2022-11-15T00:26:51;42.47;;;18.95;;
38859;SDS011;24609;48.316;16.174;2022-11-15T00:29:17;48.10;;;17.90;;
38859;SDS011;24609;48.316;16.174;2022-11-15T00:31:43;36.47;;;16.95;;
38859;SDS011;24609;48.316;16.174;2022-11-15T00:34:09;37.00;;;18.27;;
38859;SDS011;24609;48.316;16.174;2022-11-15T00:36:35;39.05;;;17.35;;
38859;SDS011;24609;48.316;16.174;2022-11-15T00:39:00;37.70;;;17.50;;
38859;SDS011;24609;48.316;16.174;2022-11-15T00:41:29;40.38;;;17.00;;
38859;SDS011;24609;48.316;16.174;2022-11-15T00:43:55;36.38;;;17.08;;
38859;SDS011;24609;48.316;16.174;2022-11-15T00:46:20;32.25;;;14.15;;
38859;SDS011;24609;48.316;16.174;2022-11-15T00:48:46;35.30;;;15.82;;
38859;SDS011;24609;48.316;16.174;2022-11-15T00:51:11;36.13;;;16.58;;
38859;SDS011;24609;48.316;16.174;2022-11-15T00:53:37;33.08;;;15.45;;
38859;SDS011;24609;48.316;16.174;2022-11-15T00:56:03;37.20;;;16.30;;
38859;SDS011;24609;48.316;16.174;2022-11-15T00:58:29;39.65;;;17.58;;
38859;SDS011;24609;48.316;16.174;2022-11-15T01:00:54;30.02;;;15.57;;
38859;SDS011;24609;48.316;16.174;2022-11-15T01:03:20;32.00;;;16.35;;
38859;SDS011;24609;48.316;16.174;2022-11-15T01:05:46;31.35;;;12.55;;
38859;SDS011;24609;48.316;16.174;2022-11-15T01:08:12;33.13;;;15.75;;
38859;SDS011;24609;48.316;16.174;2022-11-15T01:10:39;33.10;;;12.98;;
38859;SDS011;24609;48.316;16.174;2022-11-15T01:13:05;33.47;;;14.23;;
38859;SDS011;24609;48.316;16.174;2022-11-15T01:15:31;39.30;;;16.63;;
38859;SDS011;24609;48.316;16.174;2022-11-15T01:17:56;26.05;;;13.32;;
38859;SDS011;24609;48.316;16.174;2022-11-15T01:20:22;28.05;;;13.05;;
38859;SDS011;24609;48.316;16.174;2022-11-15T01:22:47;29.92;;;13.45;;
38859;SDS011;24609;48.316;16.174;2022-11-15T01:25:13;22.17;;;11.38;;
38859;SDS011;24609;48.316;16.174;2022-11-15T01:27:39;24.25;;;12.68;;
38859;SDS011;24609;48.316;16.174;2022-11-15T01:30:05;32.63;;;15.00;;
38859;SDS011;24609;48.316;16.174;2022-11-15T01:32:31;30.70;;;13.68;;
38859;SDS011;24609;48.316;16.174;2022-11-15T01:34:57;36.10;;;14.40;;
38859;SDS011;24609;48.316;16.174;2022-11-15T01:37:22;30.13;;;13.00;;
38859;SDS011;24609;48.316;16.174;2022-11-15T01:39:48;31.25;;;14.98;;
38859;SDS011;24609;48.316;16.174;2022-11-15T01:42:14;30.90;;;14.00;;
38859;SDS011;24609;48.316;16.174;2022-11-15T01:44:41;32.60;;;13.95;;
38859;SDS011;24609;48.316;16.174;2022-11-15T01:47:27;24.55;;;12.40;;
38859;SDS011;24609;48.316;16.174;2022-11-15T01:49:56;22.08;;;10.77;;
38859;SDS011;24609;48.316;16.174;2022-11-15T01:52:24;33.05;;;13.73;;
38859;SDS011;24609;48.316;16.174;2022-11-15T01:55:14;24.10;;;12.25;;
38859;SDS011;24609;48.316;16.174;2022-11-15T01:57:49;28.13;;;14.00;;
38859;SDS011;24609;48.316;16.174;2022-11-15T02:00:18;35.35;;;16.63;;
38859;SDS011;24609;48.316;16.174;2022-11-15T02:02:43;36.78;;;15.23;;
38859;SDS011;24609;48.316;16.174;2022-11-15T02:05:09;30.45;;;15.10;;
38859;SDS011;24609;48.316;16.174;2022-11-15T02:07:36;35.60;;;16.30;;
38859;SDS011;24609;48.316;16.174;2022-11-15T02:10:04;35.15;;;15.60;;
38859;SDS011;24609;48.316;16.174;2022-11-15T02:12:36;33.25;;;14.15;;
38859;SDS011;24609;48.316;16.174;2022-11-15T02:15:02;32.20;;;14.68;;
38859;SDS011;24609;48.316;16.174;2022-11-15T02:31:12;26.83;;;11.70;;
38859;SDS011;24609;48.316;16.174;2022-11-15T02:33:45;30.65;;;12.70;;
38859;SDS011;24609;48.316;16.174;2022-11-15T02:41:51;38.58;;;14.52;;
38859;SDS011;24609;48.316;16.174;2022-11-15T02:44:23;31.63;;;15.18;;
38859;SDS011;24609;48.316;16.174;2022-11-15T02:47:11;33.55;;;14.10;;
38859;SDS011;24609;48.316;16.174;2022-11-15T02:49:45;31.08;;;14.00;;
38859;SDS011;24609;48.316;16.174;2022-11-15T02:52:18;31.17;;;13.90;;
38859;SDS011;24609;48.316;16.174;2022-11-15T02:54:55;30.27;;;13.57;;
38859;SDS011;24609;48.316;16.174;2022-11-15T02:58:14;34.35;;;15.55;;
38859;SDS011;24609;48.316;16.174;2022-11-15T03:00:20;33.10;;;13.85;;
38859;SDS011;24609;48.316;16.174;2022-11-15T03:05:46;31.33;;;13.38;;
38859;SDS011;24609;48.316;16.174;2022-11-15T03:08:32;32.80;;;14.90;;
38859;SDS011;24609;48.316;16.174;2022-11-15T03:11:11;29.70;;;14.07;;
38859;SDS011;24609;48.316;16.174;2022-11-15T03:13:53;32.30;;;14.50;;
38859;SDS011;24609;48.316;16.174;2022-11-15T03:19:46;27.20;;;11.68;;
38859;SDS011;24609;48.316;16.174;2022-11-15T03:21:46;25.40;;;13.85;;
38859;SDS011;24609;48.316;16.174;2022-11-15T03:24:14;31.05;;;13.90;;
38859;SDS011;24609;48.316;16.174;2022-11-15T03:26:43;29.83;;;12.32;;
38859;SDS011;24609;48.316;16.174;2022-11-15T03:29:16;35.25;;;14.07;;
38859;SDS011;24609;48.316;16.174;2022-11-15T03:31:48;28.85;;;12.27;;
38859;SDS011;24609;48.316;16.174;2022-11-15T03:36:48;27.60;;;12.23;;
38859;SDS011;24609;48.316;16.174;2022-11-15T03:39:16;25.75;;;11.23;;
38859;SDS011;24609;48.316;16.174;2022-11-15T03:49:46;28.67;;;13.35;;
38859;SDS011;24609;48.316;16.174;2022-11-15T03:52:22;28.50;;;10.65;;
38859;SDS011;24609;48.316;16.174;2022-11-15T03:54:49;24.50;;;11.90;;
38859;SDS011;24609;48.316;16.174;2022-11-15T03:57:20;23.23;;;11.65;;
38859;SDS011;24609;48.316;16.174;2022-11-15T03:59:46;20.23;;;10.50;;
38859;SDS011;24609;48.316;16.174;2022-11-15T04:02:11;27.23;;;11.13;;
38859;SDS011;24609;48.316;16.174;2022-11-15T04:04:37;16.55;;;8.68;;
38859;SDS011;24609;48.316;16.174;2022-11-15T04:07:03;23.38;;;11.82;;
38859;SDS011;24609;48.316;16.174;2022-11-15T04:09:29;26.75;;;11.90;;
38859;SDS011;24609;48.316;16.174;2022-11-15T04:11:54;26.25;;;12.25;;
38859;SDS011;24609;48.316;16.174;2022-11-15T04:14:20;30.00;;;11.85;;
38859;SDS011;24609;48.316;16.174;2022-11-15T04:16:45;24.20;;;11.40;;
38859;SDS011;24609;48.316;16.174;2022-11-15T04:19:11;24.42;;;11.77;;
38859;SDS011;24609;48.316;16.174;2022-11-15T04:21:55;22.70;;;11.00;;
38859;SDS011;24609;48.316;16.174;2022-11-15T04:24:40;24.70;;;11.77;;
38859;SDS011;24609;48.316;16.174;2022-11-15T04:27:05;27.02;;;10.32;;
38859;SDS011;24609;48.316;16.174;2022-11-15T04:29:31;25.73;;;11.75;;
38859;SDS011;24609;48.316;16.174;2022-11-15T04:32:00;29.23;;;11.88;;
38859;SDS011;24609;48.316;16.174;2022-11-15T04:34:26;28.80;;;13.88;;
38859;SDS011;24609;48.316;16.174;2022-11-15T04:36:52;30.30;;;11.88;;
38859;SDS011;24609;48.316;16.174;2022-11-15T04:39:36;38.17;;;13.25;;
38859;SDS011;24609;48.316;16.174;2022-11-15T04:42:02;25.60;;;12.27;;
38859;SDS011;24609;48.316;16.174;2022-11-15T04:44:28;36.88;;;14.88;;
38859;SDS011;24609;48.316;16.174;2022-11-15T04:46:53;22.55;;;11.00;;
38859;SDS011;24609;48.316;16.174;2022-11-15T04:49:19;27.50;;;11.80;;
38859;SDS011;24609;48.316;16.174;2022-11-15T04:51:45;25.25;;;11.38;;
38859;SDS011;24609;48.316;16.174;2022-11-15T04:54:10;28.80;;;12.15;;
38859;SDS011;24609;48.316;16.174;2022-11-15T04:56:36;26.00;;;12.65;;
38859;SDS011;24609;48.316;16.174;2022-11-15T04:59:02;31.10;;;12.05;;
38859;SDS011;24609;48.316;16.174;2022-11-15T05:01:27;26.48;;;11.85;;
38859;SDS011;24609;48.316;16.174;2022-11-15T05:03:53;32.13;;;13.85;;
38859;SDS011;24609;48.316;16.174;2022-11-15T05:06:37;29.67;;;12.82;;
38859;SDS011;24609;48.316;16.174;2022-11-15T05:09:03;35.30;;;13.05;;
38859;SDS011;24609;48.316;16.174;2022-11-15T05:11:29;22.90;;;9.90;;
38859;SDS011;24609;48.316;16.174;2022-11-15T05:13:55;24.30;;;13.18;;
38859;SDS011;24609;48.316;16.174;2022-11-15T05:16:20;25.95;;;11.30;;
38859;SDS011;24609;48.316;16.174;2022-11-15T05:18:46;32.33;;;13.27;;
38859;SDS011;24609;48.316;16.174;2022-11-15T05:21:15;38.38;;;13.77;;
38859;SDS011;24609;48.316;16.174;2022-11-15T05:23:40;31.85;;;13.30;;
38859;SDS011;24609;48.316;16.174;2022-11-15T05:26:06;30.73;;;11.35;;
38859;SDS011;24609;48.316;16.174;2022-11-15T05:28:33;29.52;;;13.35;;
38859;SDS011;24609;48.316;16.174;2022-11-15T05:31:06;24.65;;;11.98;;
38859;SDS011;24609;48.316;16.174;2022-11-15T05:33:37;28.98;;;12.75;;
38859;SDS011;24609;48.316;16.174;2022-11-15T05:36:05;24.15;;;10.57;;
38859;SDS011;24609;48.316;16.174;2022-11-15T05:38:48;36.13;;;13.20;;
38859;SDS011;24609;48.316;16.174;2022-11-15T05:41:15;30.48;;;12.20;;
38859;SDS011;24609;48.316;16.174;2022-11-15T05:43:43;25.33;;;11.75;;
38859;SDS011;24609;48.316;16.174;2022-11-15T05:46:09;29.35;;;12.32;;
38859;SDS011;24609;48.316;16.174;2022-11-15T05:48:36;28.20;;;12.13;;
38859;SDS011;24609;48.316;16.174;2022-11-15T05:51:05;22.08;;;10.48;;
38859;SDS011;24609;48.316;16.174;2022-11-15T05:53:32;28.10;;;10.55;;
38859;SDS011;24609;48.316;16.174;2022-11-15T05:55:58;23.70;;;10.88;;
38859;SDS011;24609;48.316;16.174;2022-11-15T05:58:24;31.05;;;12.13;;
38859;SDS011;24609;48.316;16.174;2022-11-15T06:00:49;22.88;;;11.63;;
38859;SDS011;24609;48.316;16.174;2022-11-15T06:03:15;25.83;;;11.48;;
38859;SDS011;24609;48.316;16.174;2022-11-15T06:05:41;25.23;;;10.57;;
38859;SDS011;24609;48.316;16.174;2022-11-15T06:08:06;23.55;;;10.10;;
38859;SDS011;24609;48.316;16.174;2022-11-15T06:10:32;21.15;;;10.13;;
38859;SDS011;24609;48.316;16.174;2022-11-15T06:12:58;21.63;;;10.20;;
38859;SDS011;24609;48.316;16.174;2022-11-15T06:15:24;24.48;;;11.52;;
38859;SDS011;24609;48.316;16.174;2022-11-15T06:17:49;23.52;;;11.35;;
38859;SDS011;24609;48.316;16.174;2022-11-15T06:20:15;22.33;;;11.23;;
38859;SDS011;24609;48.316;16.174;2022-11-15T06:22:41;24.48;;;11.50;;
38859;SDS011;24609;48.316;16.174;2022-11-15T06:25:07;22.58;;;9.88;;
38859;SDS011;24609;48.316;16.174;2022-11-15T06:27:32;24.25;;;11.50;;
38859;SDS011;24609;48.316;16.174;2022-11-15T06:29:58;26.48;;;10.90;;
38859;SDS011;24609;48.316;16.174;2022-11-15T06:32:24;28.98;;;11.55;;
38859;SDS011;24609;48.316;16.174;2022-11-15T06:34:49;30.25;;;13.35;;
38859;SDS011;24609;48.316;16.174;2022-11-15T06:37:15;22.70;;;10.45;;
38859;SDS011;24609;48.316;16.174;2022-11-15T06:39:42;25.92;;;10.60;;
38859;SDS011;24609;48.316;16.174;2022-11-15T06:42:08;26.48;;;12.38;;
38859;SDS011;24609;48.316;16.174;2022-11-15T06:44:34;26.17;;;11.93;;
38859;SDS011;24609;48.316;16.174;2022-11-15T06:47:00;25.55;;;11.35;;
38859;SDS011;24609;48.316;16.174;2022-11-15T06:49:25;29.23;;;12.13;;
38859;SDS011;24609;48.316;16.174;2022-11-15T06:51:51;28.35;;;10.95;;
38859;SDS011;24609;48.316;16.174;2022-11-15T06:54:17;31.67;;;12.52;;
38859;SDS011;24609;48.316;16.174;2022-11-15T06:56:42;27.95;;;12.07;;
38859;SDS011;24609;48.316;16.174;2022-11-15T06:59:08;28.80;;;10.98;;
38859;SDS011;24609;48.316;16.174;2022-11-15T07:01:33;30.45;;;12.93;;
38859;SDS011;24609;48.316;16.174;2022-11-15T07:03:59;34.58;;;11.68;;
38859;SDS011;24609;48.316;16.174;2022-11-15T07:06:25;31.98;;;12.55;;
38859;SDS011;24609;48.316;16.174;2022-11-15T07:08:51;28.38;;;12.07;;
38859;SDS011;24609;48.316;16.174;2022-11-15T07:11:17;34.85;;;14.35;;
38859;SDS011;24609;48.316;16.174;2022-11-15T07:13:42;35.38;;;14.73;;
38859;SDS011;24609;48.316;16.174;2022-11-15T07:16:08;32.08;;;12.75;;
38859;SDS011;24609;48.316;16.174;2022-11-15T07:18:36;32.83;;;14.23;;
38859;SDS011;24609;48.316;16.174;2022-11-15T07:21:04;36.15;;;15.95;;
38859;SDS011;24609;48.316;16.174;2022-11-15T07:23:32;36.50;;;14.85;;
38859;SDS011;24609;48.316;16.174;2022-11-15T07:25:58;41.75;;;15.02;;
38859;SDS011;24609;48.316;16.174;2022-11-15T07:28:25;35.85;;;15.20;;
38859;SDS011;24609;48.316;16.174;2022-11-15T07:30:51;39.50;;;15.23;;
38859;SDS011;24609;48.316;16.174;2022-11-15T07:33:17;38.05;;;14.52;;
38859;SDS011;24609;48.316;16.174;2022-11-15T07:35:42;37.13;;;16.30;;
38859;SDS011;24609;48.316;16.174;2022-11-15T07:38:11;38.23;;;15.07;;
38859;SDS011;24609;48.316;16.174;2022-11-15T07:40:37;37.42;;;15.73;;
38859;SDS011;24609;48.316;16.174;2022-11-15T07:43:05;42.20;;;15.27;;
38859;SDS011;24609;48.316;16.174;2022-11-15T07:45:32;28.48;;;13.93;;
38859;SDS011;24609;48.316;16.174;2022-11-15T07:48:01;35.05;;;15.85;;
38859;SDS011;24609;48.316;16.174;2022-11-15T07:50:27;30.50;;;12.23;;
38859;SDS011;24609;48.316;16.174;2022-11-15T07:52:56;35.65;;;14.07;;
38859;SDS011;24609;48.316;16.174;2022-11-15T07:55:23;38.30;;;16.13;;
38859;SDS011;24609;48.316;16.174;2022-11-15T07:57:50;35.60;;;14.45;;
38859;SDS011;24609;48.316;16.174;2022-11-15T08:00:16;29.13;;;12.60;;
38859;SDS011;24609;48.316;16.174;2022-11-15T08:02:42;42.15;;;14.80;;
38859;SDS011;24609;48.316;16.174;2022-11-15T08:05:08;37.88;;;14.18;;
38859;SDS011;24609;48.316;16.174;2022-11-15T08:07:33;38.05;;;15.40;;
38859;SDS011;24609;48.316;16.174;2022-11-15T08:09:59;43.55;;;15.50;;
38859;SDS011;24609;48.316;16.174;2022-11-15T08:14:54;31.63;;;13.60;;
38859;SDS011;24609;48.316;16.174;2022-11-15T08:17:21;33.30;;;15.25;;
38859;SDS011;24609;48.316;16.174;2022-11-15T08:19:51;36.08;;;15.70;;
38859;SDS011;24609;48.316;16.174;2022-11-15T08:22:16;33.92;;;13.38;;
38859;SDS011;24609;48.316;16.174;2022-11-15T08:24:43;34.28;;;13.25;;
38859;SDS011;24609;48.316;16.174;2022-11-15T08:27:09;39.08;;;16.50;;
38859;SDS011;24609;48.316;16.174;2022-11-15T08:29:43;36.55;;;14.27;;
38859;SDS011;24609;48.316;16.174;2022-11-15T08:32:09;31.17;;;12.18;;
38859;SDS011;24609;48.316;16.174;2022-11-15T08:34:36;39.55;;;13.70;;
38859;SDS011;24609;48.316;16.174;2022-11-15T08:37:02;33.90;;;15.57;;
38859;SDS011;24609;48.316;16.174;2022-11-15T08:39:28;35.38;;;14.77;;
38859;SDS011;24609;48.316;16.174;2022-11-15T08:41:53;30.95;;;12.13;;
38859;SDS011;24609;48.316;16.174;2022-11-15T08:44:19;31.42;;;12.25;;
38859;SDS011;24609;48.316;16.174;2022-11-15T08:46:47;42.97;;;13.93;;
38859;SDS011;24609;48.316;16.174;2022-11-15T08:49:13;24.92;;;12.50;;
38859;SDS011;24609;48.316;16.174;2022-11-15T08:51:39;25.08;;;11.32;;
38859;SDS011;24609;48.316;16.174;2022-11-15T08:54:04;31.55;;;13.77;;
38859;SDS011;24609;48.316;16.174;2022-11-15T08:56:30;28.92;;;12.60;;
38859;SDS011;24609;48.316;16.174;2022-11-15T08:58:56;26.15;;;13.07;;
38859;SDS011;24609;48.316;16.174;2022-11-15T09:01:22;27.02;;;11.80;;
38859;SDS011;24609;48.316;16.174;2022-11-15T09:03:48;33.63;;;15.48;;
38859;SDS011;24609;48.316;16.174;2022-11-15T09:06:13;28.38;;;13.90;;
38859;SDS011;24609;48.316;16.174;2022-11-15T09:08:40;30.63;;;13.52;;
38859;SDS011;24609;48.316;16.174;2022-11-15T09:11:06;39.30;;;14.70;;
38859;SDS011;24609;48.316;16.174;2022-11-15T09:13:33;32.10;;;13.98;;
38859;SDS011;24609;48.316;16.174;2022-11-15T09:16:00;37.00;;;13.90;;
38859;SDS011;24609;48.316;16.174;2022-11-15T09:18:26;36.90;;;16.02;;
38859;SDS011;24609;48.316;16.174;2022-11-15T09:20:56;31.67;;;12.85;;
38859;SDS011;24609;48.316;16.174;2022-11-15T09:23:23;33.50;;;12.77;;
38859;SDS011;24609;48.316;16.174;2022-11-15T09:25:49;26.52;;;11.55;;
38859;SDS011;24609;48.316;16.174;2022-11-15T09:28:15;23.98;;;11.00;;
38859;SDS011;24609;48.316;16.174;2022-11-15T09:30:41;15.20;;;9.38;;
38859;SDS011;24609;48.316;16.174;2022-11-15T09:33:08;25.30;;;10.93;;
38859;SDS011;24609;48.316;16.174;2022-11-15T09:35:34;22.17;;;10.48;;
38859;SDS011;24609;48.316;16.174;2022-11-15T09:38:00;29.25;;;11.70;;
38859;SDS011;24609;48.316;16.174;2022-11-15T09:40:27;31.40;;;12.93;;
38859;SDS011;24609;48.316;16.174;2022-11-15T09:51:40;24.77;;;9.80;;
38859;SDS011;24609;48.316;16.174;2022-11-15T09:56:50;21.23;;;10.38;;
38859;SDS011;24609;48.316;16.174;2022-11-15T10:04:33;31.65;;;11.35;;
38859;SDS011;24609;48.316;16.174;2022-11-15T10:07:23;28.73;;;11.27;;
38859;SDS011;24609;48.316;16.174;2022-11-15T10:12:28;25.23;;;10.88;;
38859;SDS011;24609;48.316;16.174;2022-11-15T10:15:02;20.23;;;9.68;;
38859;SDS011;24609;48.316;16.174;2022-11-15T10:17:45;23.92;;;10.13;;
38859;SDS011;24609;48.316;16.174;2022-11-15T10:20:20;16.13;;;9.00;;
38859;SDS011;24609;48.316;16.174;2022-11-15T10:22:51;26.88;;;12.98;;
38859;SDS011;24609;48.316;16.174;2022-11-15T10:25:25;26.00;;;11.00;;
38859;SDS011;24609;48.316;16.174;2022-11-15T10:27:58;33.85;;;11.65;;
38859;SDS011;24609;48.316;16.174;2022-11-15T10:30:30;27.45;;;13.27;;
38859;SDS011;24609;48.316;16.174;2022-11-15T10:33:08;33.25;;;11.90;;
38859;SDS011;24609;48.316;16.174;2022-11-15T10:35:43;30.30;;;12.65;;
38859;SDS011;24609;48.316;16.174;2022-11-15T10:38:10;25.90;;;12.63;;
38859;SDS011;24609;48.316;16.174;2022-11-15T10:40:37;24.83;;;12.48;;
38859;SDS011;24609;48.316;16.174;2022-11-15T10:45:36;28.38;;;11.32;;
38859;SDS011;24609;48.316;16.174;2022-11-15T10:50:38;30.23;;;12.45;;
38859;SDS011;24609;48.316;16.174;2022-11-15T10:53:15;33.60;;;12.95;;
38859;SDS011;24609;48.316;16.174;2022-11-15T10:55:48;27.17;;;11.55;;
38859;SDS011;24609;48.316;16.174;2022-11-15T10:58:22;26.25;;;11.73;;
38859;SDS011;24609;48.316;16.174;2022-11-15T11:00:52;44.15;;;19.75;;
38859;SDS011;24609;48.316;16.174;2022-11-15T11:03:28;36.30;;;15.07;;
38859;SDS011;24609;48.316;16.174;2022-11-15T11:06:06;30.77;;;14.75;;
38859;SDS011;24609;48.316;16.174;2022-11-15T11:08:39;31.23;;;12.07;;
38859;SDS011;24609;48.316;16.174;2022-11-15T11:11:17;34.30;;;14.20;;
38859;SDS011;24609;48.316;16.174;2022-11-15T11:13:43;29.33;;;10.68;;
38859;SDS011;24609;48.316;16.174;2022-11-15T11:16:15;30.35;;;11.63;;
38859;SDS011;24609;48.316;16.174;2022-11-15T11:21:31;32.03;;;13.27;;
38859;SDS011;24609;48.316;16.174;2022-11-15T11:24:28;28.17;;;11.43;;
38859;SDS011;24609;48.316;16.174;2022-11-15T11:30:17;29.05;;;15.88;;
38859;SDS011;24609;48.316;16.174;2022-11-15T11:33:03;37.83;;;13.43;;
38859;SDS011;24609;48.316;16.174;2022-11-15T11:44:23;23.13;;;11.32;;
38859;SDS011;24609;48.316;16.174;2022-11-15T11:47:00;24.88;;;11.82;;
38859;SDS011;24609;48.316;16.174;2022-11-15T11:49:43;36.13;;;16.02;;
38859;SDS011;24609;48.316;16.174;2022-11-15T11:52:16;28.20;;;12.43;;
38859;SDS011;24609;48.316;16.174;2022-11-15T11:55:18;28.23;;;13.07;;
38859;SDS011;24609;48.316;16.174;2022-11-15T12:00:20;42.08;;;17.27;;
38859;SDS011;24609;48.316;16.174;2022-11-15T12:02:50;29.02;;;13.40;;
38859;SDS011;24609;48.316;16.174;2022-11-15T12:05:34;24.98;;;11.75;;
38859;SDS011;24609;48.316;16.174;2022-11-15T12:08:17;25.20;;;11.13;;
38859;SDS011;24609;48.316;16.174;2022-11-15T12:10:45;31.52;;;12.35;;
38859;SDS011;24609;48.316;16.174;2022-11-15T12:13:16;32.75;;;10.90;;
38859;SDS011;24609;48.316;16.174;2022-11-15T12:15:52;22.98;;;10.38;;
38859;SDS011;24609;48.316;16.174;2022-11-15T12:18:28;28.23;;;12.98;;
38859;SDS011;24609;48.316;16.174;2022-11-15T12:20:58;34.72;;;14.93;;
38859;SDS011;24609;48.316;16.174;2022-11-15T12:23:32;43.17;;;15.25;;
38859;SDS011;24609;48.316;16.174;2022-11-15T12:26:10;40.65;;;15.68;;
38859;SDS011;24609;48.316;16.174;2022-11-15T12:31:49;36.97;;;14.90;;
38859;SDS011;24609;48.316;16.174;2022-11-15T12:36:46;36.70;;;16.07;;
38859;SDS011;24609;48.316;16.174;2022-11-15T12:39:13;38.20;;;15.70;;
38859;SDS011;24609;48.316;16.174;2022-11-15T12:41:40;35.47;;;15.20;;
38859;SDS011;24609;48.316;16.174;2022-11-15T12:44:11;34.78;;;15.13;;
38859;SDS011;24609;48.316;16.174;2022-11-15T13:04:47;43.88;;;16.05;;
38859;SDS011;24609;48.316;16.174;2022-11-15T13:15:40;38.60;;;14.25;;
38859;SDS011;24609;48.316;16.174;2022-11-15T13:18:26;40.78;;;14.02;;
38859;SDS011;24609;48.316;16.174;2022-11-15T13:20:58;35.08;;;14.90;;
38859;SDS011;24609;48.316;16.174;2022-11-15T13:23:24;33.85;;;14.90;;
38859;SDS011;24609;48.316;16.174;2022-11-15T13:26:06;43.53;;;15.52;;
38859;SDS011;24609;48.316;16.174;2022-11-15T13:28:50;40.70;;;16.23;;
38859;SDS011;24609;48.316;16.174;2022-11-15T13:33:55;37.30;;;17.52;;
38859;SDS011;24609;48.316;16.174;2022-11-15T13:36:26;45.20;;;19.75;;
38859;SDS011;24609;48.316;16.174;2022-11-15T13:38:55;44.72;;;18.40;;
38859;SDS011;24609;48.316;16.174;2022-11-15T13:41:27;41.45;;;19.90;;
38859;SDS011;24609;48.316;16.174;2022-11-15T13:43:55;50.17;;;21.00;;
38859;SDS011;24609;48.316;16.174;2022-11-15T13:48:56;42.10;;;17.23;;
38859;SDS011;24609;48.316;16.174;2022-11-15T13:51:26;39.67;;;16.50;;
38859;SDS011;24609;48.316;16.174;2022-11-15T13:54:00;41.80;;;17.85;;
38859;SDS011;24609;48.316;16.174;2022-11-15T13:56:33;51.33;;;18.10;;
38859;SDS011;24609;48.316;16.174;2022-11-15T13:59:01;45.95;;;18.77;;
38859;SDS011;24609;48.316;16.174;2022-11-15T14:01:34;38.38;;;15.95;;
38859;SDS011;24609;48.316;16.174;2022-11-15T14:04:00;48.75;;;19.10;;
38859;SDS011;24609;48.316;16.174;2022-11-15T14:06:28;46.47;;;18.30;;
38859;SDS011;24609;48.316;16.174;2022-11-15T14:11:36;51.00;;;17.85;;
38859;SDS011;24609;48.316;16.174;2022-11-15T14:16:47;52.05;;;17.88;;
38859;SDS011;24609;48.316;16.174;2022-11-15T14:24:46;45.20;;;18.17;;
38859;SDS011;24609;48.316;16.174;2022-11-15T14:27:32;47.58;;;18.77;;
38859;SDS011;24609;48.316;16.174;2022-11-15T14:29:58;48.03;;;19.60;;
38859;SDS011;24609;48.316;16.174;2022-11-15T14:32:26;43.40;;;17.75;;
38859;SDS011;24609;48.316;16.174;2022-11-15T14:34:54;50.63;;;17.50;;
38859;SDS011;24609;48.316;16.174;2022-11-15T14:37:29;44.42;;;18.75;;
38859;SDS011;24609;48.316;16.174;2022-11-15T14:39:58;46.55;;;17.90;;
38859;SDS011;24609;48.316;16.174;2022-11-15T14:42:24;41.80;;;18.55;;
38859;SDS011;24609;48.316;16.174;2022-11-15T14:44:50;47.13;;;18.80;;
38859;SDS011;24609;48.316;16.174;2022-11-15T14:47:16;46.58;;;19.40;;
38859;SDS011;24609;48.316;16.174;2022-11-15T14:49:42;46.72;;;21.50;;
38859;SDS011;24609;48.316;16.174;2022-11-15T14:52:16;46.10;;;18.60;;
38859;SDS011;24609;48.316;16.174;2022-11-15T14:54:49;44.58;;;19.00;;
38859;SDS011;24609;48.316;16.174;2022-11-15T14:57:15;46.95;;;19.08;;
38859;SDS011;24609;48.316;16.174;2022-11-15T14:59:40;35.53;;;15.55;;
38859;SDS011;24609;48.316;16.174;2022-11-15T15:02:19;47.45;;;18.02;;
38859;SDS011;24609;48.316;16.174;2022-11-15T15:04:50;36.40;;;14.98;;
38859;SDS011;24609;48.316;16.174;2022-11-15T15:07:16;42.88;;;17.25;;
38859;SDS011;24609;48.316;16.174;2022-11-15T15:09:42;35.40;;;15.52;;
38859;SDS011;24609;48.316;16.174;2022-11-15T15:12:14;33.38;;;15.95;;
38859;SDS011;24609;48.316;16.174;2022-11-15T15:14:42;35.83;;;14.60;;
38859;SDS011;24609;48.316;16.174;2022-11-15T15:17:08;29.35;;;14.43;;
38859;SDS011;24609;48.316;16.174;2022-11-15T15:19:34;34.67;;;16.08;;
38859;SDS011;24609;48.316;16.174;2022-11-15T15:21:59;36.92;;;15.88;;
38859;SDS011;24609;48.316;16.174;2022-11-15T15:24:25;33.83;;;16.25;;
38859;SDS011;24609;48.316;16.174;2022-11-15T15:26:51;29.73;;;13.82;;
38859;SDS011;24609;48.316;16.174;2022-11-15T15:29:16;26.13;;;12.82;;
38859;SDS011;24609;48.316;16.174;2022-11-15T15:31:42;30.73;;;13.70;;
38859;SDS011;24609;48.316;16.174;2022-11-15T15:34:08;26.60;;;12.43;;
38859;SDS011;24609;48.316;16.174;2022-11-15T15:36:33;34.70;;;14.25;;
38859;SDS011;24609;48.316;16.174;2022-11-15T15:38:59;29.85;;;12.82;;
38859;SDS011;24609;48.316;16.174;2022-11-15T15:41:25;33.67;;;14.57;;
38859;SDS011;24609;48.316;16.174;2022-11-15T15:43:50;31.98;;;12.23;;
38859;SDS011;24609;48.316;16.174;2022-11-15T15:46:17;31.13;;;13.32;;
38859;SDS011;24609;48.316;16.174;2022-11-15T15:48:43;31.70;;;13.75;;
38859;SDS011;24609;48.316;16.174;2022-11-15T15:51:10;30.25;;;11.98;;
38859;SDS011;24609;48.316;16.174;2022-11-15T15:53:36;26.77;;;12.40;;
38859;SDS011;24609;48.316;16.174;2022-11-15T15:56:02;30.63;;;13.85;;
38859;SDS011;24609;48.316;16.174;2022-11-15T15:58:28;25.05;;;11.57;;
38859;SDS011;24609;48.316;16.174;2022-11-15T16:00:54;25.60;;;13.70;;
38859;SDS011;24609;48.316;16.174;2022-11-15T16:03:19;35.47;;;13.98;;
38859;SDS011;24609;48.316;16.174;2022-11-15T16:05:45;34.60;;;15.57;;
38859;SDS011;24609;48.316;16.174;2022-11-15T16:08:18;36.72;;;15.10;;
38859;SDS011;24609;48.316;16.174;2022-11-15T16:10:48;35.85;;;15.82;;
38859;SDS011;24609;48.316;16.174;2022-11-15T16:13:14;38.72;;;17.35;;
38859;SDS011;24609;48.316;16.174;2022-11-15T16:15:40;32.30;;;16.48;;
38859;SDS011;24609;48.316;16.174;2022-11-15T16:18:14;34.35;;;14.82;;
38859;SDS011;24609;48.316;16.174;2022-11-15T16:20:48;29.20;;;15.60;;
38859;SDS011;24609;48.316;16.174;2022-11-15T16:23:17;24.70;;;12.05;;
38859;SDS011;24609;48.316;16.174;2022-11-15T16:28:19;39.08;;;16.17;;